createdAt,value
2023-04-25T00:01:10.161Z,9.50
2023-04-25T00:03:39.282Z,12.90
2023-04-25T00:06:08.122Z,9.00
2023-04-25T00:08:35.928Z,9.30
2023-04-25T00:11:03.977Z,8.70
2023-04-25T00:13:31.780Z,8.50
2023-04-25T00:15:59.893Z,8.70
2023-04-25T00:18:29.959Z,7.90
2023-04-25T00:20:57.890Z,7.60
2023-04-25T00:23:25.925Z,7.60
2023-04-25T00:25:53.750Z,7.70
2023-04-25T00:28:22.002Z,8.30
2023-04-25T00:30:49.896Z,6.90
2023-04-25T00:33:17.700Z,8.10
2023-04-25T00:35:45.692Z,8.00
2023-04-25T00:38:13.600Z,8.10
2023-04-25T00:40:41.523Z,8.50
2023-04-25T00:43:09.359Z,9.60
2023-04-25T00:45:39.640Z,7.60
2023-04-25T00:48:07.868Z,7.60
2023-04-25T00:50:36.201Z,7.20
2023-04-25T00:53:04.503Z,7.80
2023-04-25T00:55:37.176Z,7.30
2023-04-25T00:58:05.355Z,7.70
2023-04-25T01:00:33.235Z,9.20
2023-04-25T01:03:01.341Z,8.60
2023-04-25T01:05:29.768Z,8.20
2023-04-25T01:07:57.697Z,8.00
2023-04-25T01:10:25.672Z,6.00
2023-04-25T01:12:53.681Z,7.20
2023-04-25T01:15:21.831Z,8.30
2023-04-25T01:17:50.640Z,7.70
2023-04-25T01:20:18.636Z,9.00
2023-04-25T01:22:46.655Z,8.00
2023-04-25T01:25:14.616Z,7.40
2023-04-25T01:27:42.711Z,7.00
2023-04-25T01:30:11.155Z,7.40
2023-04-25T01:32:39.926Z,6.40
2023-04-25T01:35:12.375Z,7.40
2023-04-25T01:37:41.524Z,7.20
2023-04-25T01:40:11.733Z,7.00
2023-04-25T01:42:43.510Z,8.00
2023-04-25T01:45:12.141Z,6.80
2023-04-25T01:47:41.238Z,6.60
2023-04-25T01:50:10.571Z,7.10
2023-04-25T01:52:39.624Z,6.70
2023-04-25T01:55:09.276Z,7.10
2023-04-25T01:57:39.696Z,7.00
2023-04-25T02:00:10.137Z,7.00
2023-04-25T02:02:40.728Z,7.90
2023-04-25T02:05:23.991Z,8.10
2023-04-25T02:07:51.967Z,7.70
2023-04-25T02:10:19.885Z,8.10
2023-04-25T02:13:07.362Z,8.10
2023-04-25T02:15:43.152Z,7.70
2023-04-25T02:18:19.846Z,9.20
2023-04-25T02:20:48.075Z,8.30
2023-04-25T02:23:16.633Z,10.60
2023-04-25T02:25:44.640Z,7.20
2023-04-25T02:28:12.604Z,8.90
2023-04-25T02:30:40.536Z,10.20
2023-04-25T02:33:08.548Z,11.70
2023-04-25T02:35:37.632Z,9.50
2023-04-25T02:38:05.657Z,11.60
2023-04-25T02:40:34.975Z,8.40
2023-04-25T02:43:02.957Z,10.00
2023-04-25T02:45:30.776Z,10.30
2023-04-25T02:47:58.644Z,10.80
2023-04-25T02:50:26.738Z,10.90
2023-04-25T02:52:54.818Z,9.50
2023-04-25T02:55:28.389Z,12.60
2023-04-25T02:57:57.462Z,11.20
2023-04-25T03:00:37.750Z,10.80
2023-04-25T03:03:05.904Z,10.80
2023-04-25T03:05:33.835Z,12.50
2023-04-25T03:08:01.985Z,11.50
2023-04-25T03:10:30.328Z,11.30
2023-04-25T03:13:00.927Z,10.70
2023-04-25T03:15:28.952Z,9.20
2023-04-25T03:17:56.974Z,10.10
2023-04-25T03:20:25.429Z,9.90
2023-04-25T03:22:54.010Z,10.50
2023-04-25T03:25:22.163Z,9.60
2023-04-25T03:27:50.234Z,9.90
2023-04-25T03:30:18.149Z,8.70
2023-04-25T03:32:46.368Z,10.30
2023-04-25T03:35:17.505Z,10.30
2023-04-25T03:37:48.294Z,9.80
2023-04-25T03:40:20.669Z,9.30
2023-04-25T03:43:06.805Z,10.30
2023-04-25T03:45:34.867Z,10.90
2023-04-25T03:48:03.192Z,11.10
2023-04-25T03:50:32.709Z,9.00
2023-04-25T03:53:00.761Z,10.10
2023-04-25T03:55:31.981Z,8.70
2023-04-25T03:58:00.469Z,9.90
2023-04-25T04:00:28.864Z,9.70
2023-04-25T04:02:57.205Z,9.20
2023-04-25T04:05:25.642Z,8.60
2023-04-25T04:07:56.973Z,8.60
2023-04-25T04:10:25.464Z,10.10
2023-04-25T04:12:53.399Z,8.80
2023-04-25T04:15:21.588Z,12.10
2023-04-25T04:17:50.288Z,8.30
2023-04-25T04:20:19.635Z,9.70
2023-04-25T04:22:47.985Z,9.50
2023-04-25T04:25:17.253Z,8.90
2023-04-25T04:28:08.908Z,8.30
2023-04-25T04:30:57.417Z,8.80
2023-04-25T04:33:27.149Z,9.10
2023-04-25T04:36:00.194Z,7.90
2023-04-25T04:38:28.901Z,8.80
2023-04-25T04:41:00.021Z,7.60
2023-04-25T04:43:49.674Z,8.40
2023-04-25T04:46:43.596Z,7.70
2023-04-25T04:49:28.553Z,7.70
2023-04-25T04:52:07.134Z,7.80
2023-04-25T04:54:54.000Z,7.10
2023-04-25T04:57:41.847Z,8.00
2023-04-25T05:00:13.441Z,7.40
2023-04-25T05:02:43.973Z,8.90
2023-04-25T05:05:29.335Z,12.50
2023-04-25T05:08:16.196Z,34.40
2023-04-25T05:10:54.516Z,23.80
2023-04-25T05:13:57.963Z,29.30
2023-04-25T05:16:44.961Z,51.40
2023-04-25T05:19:22.425Z,35.10
2023-04-25T05:22:09.345Z,27.30
2023-04-25T05:25:06.738Z,17.20
2023-04-25T05:27:52.247Z,21.00
2023-04-25T05:30:45.636Z,22.70
2023-04-25T05:33:22.955Z,14.10
2023-04-25T05:35:51.422Z,21.90
2023-04-25T05:38:19.739Z,19.70
2023-04-25T05:41:08.415Z,29.70
2023-04-25T05:43:51.048Z,73.00
2023-04-25T05:46:26.511Z,48.30
2023-04-25T05:49:13.613Z,62.20
2023-04-25T05:52:06.288Z,94.80
2023-04-25T05:54:46.344Z,41.90
2023-04-25T05:57:25.377Z,53.90
2023-04-25T05:59:54.066Z,21.00
2023-04-25T06:02:23.424Z,10.90
2023-04-25T06:04:52.393Z,11.40
2023-04-25T06:07:21.402Z,46.10
2023-04-25T06:09:50.399Z,36.90
2023-04-25T06:12:18.328Z,56.90
2023-04-25T06:14:46.850Z,35.70
2023-04-25T06:17:16.152Z,21.60
2023-04-25T06:19:44.320Z,19.10
2023-04-25T06:22:12.460Z,13.60
2023-04-25T06:24:41.984Z,12.70
2023-04-25T06:27:10.044Z,9.30
2023-04-25T06:29:37.862Z,11.30
2023-04-25T06:32:06.420Z,7.70
2023-04-25T06:34:34.531Z,8.50
2023-04-25T06:37:02.490Z,7.40
2023-04-25T06:39:30.621Z,7.20
2023-04-25T06:41:58.547Z,7.30
2023-04-25T06:44:42.713Z,6.90
2023-04-25T06:47:11.336Z,7.00
2023-04-25T06:49:40.009Z,6.50
2023-04-25T06:52:08.807Z,7.20
2023-04-25T06:54:36.594Z,6.30
2023-04-25T06:57:18.792Z,6.60
2023-04-25T06:59:46.996Z,6.50
2023-04-25T07:02:15.472Z,6.10
2023-04-25T07:04:43.878Z,6.10
2023-04-25T07:07:11.874Z,6.20
2023-04-25T07:09:45.745Z,6.20
2023-04-25T07:12:13.575Z,7.10
2023-04-25T07:14:41.767Z,6.10
2023-04-25T07:17:10.010Z,5.80
2023-04-25T07:19:40.993Z,7.20
2023-04-25T07:22:09.141Z,14.60
2023-04-25T07:24:37.995Z,13.80
2023-04-25T07:27:06.460Z,112.70
2023-04-25T07:30:05.096Z,389.80
2023-04-25T07:32:33.629Z,116.70
2023-04-25T07:35:03.277Z,29.00
2023-04-25T07:37:31.258Z,15.00
2023-04-25T07:40:05.366Z,85.70
2023-04-25T07:42:33.512Z,162.00
2023-04-25T07:45:02.449Z,164.50
2023-04-25T07:47:31.118Z,104.00
2023-04-25T07:49:59.261Z,70.60
2023-04-25T07:52:27.369Z,23.50
2023-04-25T07:55:01.715Z,31.40
2023-04-25T07:57:36.508Z,75.30
2023-04-25T08:00:10.508Z,27.50
2023-04-25T08:02:41.722Z,51.60
2023-04-25T08:05:15.536Z,38.30
2023-04-25T08:07:45.976Z,74.20
2023-04-25T08:10:13.849Z,48.10
2023-04-25T08:12:44.954Z,24.90
2023-04-25T08:15:15.030Z,13.20
2023-04-25T08:17:45.107Z,8.40
2023-04-25T08:20:13.565Z,52.30
2023-04-25T08:22:41.811Z,13.80
2023-04-25T08:25:28.786Z,9.30
2023-04-25T08:27:58.216Z,33.40
2023-04-25T08:30:28.221Z,14.30
2023-04-25T08:32:56.073Z,37.70
2023-04-25T08:35:53.338Z,15.90
2023-04-25T08:38:21.500Z,11.00
2023-04-25T08:40:52.565Z,11.00
2023-04-25T08:43:21.840Z,8.50
2023-04-25T08:45:49.825Z,10.40
2023-04-25T08:48:29.578Z,10.20
2023-04-25T08:50:59.483Z,8.80
2023-04-25T08:53:34.027Z,10.60
2023-04-25T08:56:04.049Z,9.30
2023-04-25T08:58:36.393Z,9.50
2023-04-25T09:01:04.581Z,10.00
2023-04-25T09:03:35.427Z,10.20
2023-04-25T09:06:03.565Z,9.50
2023-04-25T09:08:31.582Z,9.00
2023-04-25T09:10:59.461Z,10.60
2023-04-25T09:13:29.278Z,10.80
2023-04-25T09:16:22.810Z,7.90
2023-04-25T09:19:22.145Z,11.20
2023-04-25T09:22:00.739Z,14.00
2023-04-25T09:24:40.697Z,15.30
2023-04-25T09:27:14.036Z,20.40
2023-04-25T09:29:42.100Z,36.20
2023-04-25T09:32:37.653Z,19.40
2023-04-25T09:35:07.127Z,9.00
2023-04-25T09:37:36.204Z,8.70
2023-04-25T09:40:24.140Z,8.20
2023-04-25T09:43:11.797Z,7.50
2023-04-25T09:45:46.869Z,7.20
2023-04-25T09:48:23.195Z,7.60
2023-04-25T09:51:10.968Z,7.90
2023-04-25T09:53:41.492Z,8.10
2023-04-25T09:56:15.489Z,7.60
2023-04-25T09:58:43.882Z,10.00
2023-04-25T10:01:11.888Z,9.20
2023-04-25T10:03:46.605Z,7.70
2023-04-25T10:06:24.231Z,8.70
2023-04-25T10:08:52.408Z,8.00
2023-04-25T10:11:20.682Z,9.30
2023-04-25T10:13:49.046Z,8.80
2023-04-25T10:16:17.529Z,8.00
2023-04-25T10:18:45.574Z,7.90
2023-04-25T10:21:13.481Z,8.10
2023-04-25T10:23:41.450Z,8.50
2023-04-25T10:26:13.753Z,7.90
2023-04-25T10:29:02.364Z,8.00
2023-04-25T10:31:32.004Z,7.20
2023-04-25T10:34:03.058Z,8.30
2023-04-25T10:36:32.936Z,8.10
2023-04-25T10:39:11.086Z,7.20
2023-04-25T10:41:53.427Z,7.60
2023-04-25T10:44:21.250Z,7.60
2023-04-25T10:46:49.270Z,8.80
2023-04-25T10:49:43.927Z,7.10
2023-04-25T10:52:30.872Z,27.70
2023-04-25T10:54:58.906Z,10.00
2023-04-25T10:57:44.457Z,7.80
2023-04-25T11:00:20.659Z,8.80
2023-04-25T11:03:02.157Z,6.30
2023-04-25T11:05:43.916Z,6.80
2023-04-25T11:08:22.085Z,8.50
2023-04-25T11:10:50.920Z,8.40
2023-04-25T11:13:23.991Z,10.40
2023-04-25T11:16:03.265Z,8.30
2023-04-25T11:18:44.738Z,15.90
2023-04-25T11:21:12.850Z,9.50
2023-04-25T11:23:40.683Z,17.10
2023-04-25T11:26:08.710Z,17.30
2023-04-25T11:28:36.764Z,21.50
2023-04-25T11:31:05.450Z,10.00
2023-04-25T11:33:33.358Z,8.60
2023-04-25T11:36:03.286Z,8.90
2023-04-25T11:38:31.077Z,6.60
2023-04-25T11:40:59.574Z,11.30
2023-04-25T11:43:27.481Z,11.40
2023-04-25T11:45:55.610Z,17.40
2023-04-25T11:48:26.054Z,8.80
2023-04-25T11:50:55.236Z,10.60
2023-04-25T11:53:22.960Z,9.90
2023-04-25T11:55:51.316Z,8.80
2023-04-25T11:58:20.777Z,6.80
2023-04-25T12:00:50.489Z,6.60
2023-04-25T12:03:19.717Z,9.70
2023-04-25T12:05:47.953Z,9.40
2023-04-25T12:08:19.383Z,8.60
2023-04-25T12:10:47.958Z,7.70
2023-04-25T12:13:26.997Z,8.00
2023-04-25T12:15:58.221Z,9.50
2023-04-25T12:18:28.800Z,6.20
2023-04-25T12:20:57.338Z,9.50
2023-04-25T12:23:29.315Z,6.50
2023-04-25T12:25:57.432Z,8.80
2023-04-25T12:28:26.075Z,6.90
2023-04-25T12:31:07.132Z,8.00
2023-04-25T12:33:37.218Z,7.70
2023-04-25T12:36:09.938Z,6.90
2023-04-25T12:38:42.796Z,7.20
2023-04-25T12:41:10.568Z,8.50
2023-04-25T12:43:38.612Z,8.10
2023-04-25T12:46:06.767Z,8.00
2023-04-25T12:48:34.617Z,10.30
2023-04-25T12:51:02.624Z,8.60
2023-04-25T12:53:30.874Z,9.20
2023-04-25T12:55:58.741Z,8.70
2023-04-25T12:58:26.881Z,8.80
2023-04-25T13:00:55.260Z,21.90
2023-04-25T13:03:23.703Z,11.70
2023-04-25T13:05:53.693Z,10.70
2023-04-25T13:08:21.895Z,8.00
2023-04-25T13:10:49.696Z,8.60
2023-04-25T13:13:17.886Z,14.90
2023-04-25T13:15:45.784Z,251.00
2023-04-25T13:18:13.670Z,111.40
2023-04-25T13:20:42.151Z,37.80
2023-04-25T13:23:09.983Z,52.10
2023-04-25T13:25:37.810Z,12.40
2023-04-25T13:28:05.971Z,17.10
2023-04-25T13:30:33.901Z,10.30
2023-04-25T13:33:04.542Z,44.90
2023-04-25T13:35:33.380Z,14.80
2023-04-25T13:38:01.382Z,7.60
2023-04-25T13:40:29.350Z,7.30
2023-04-25T13:42:57.413Z,8.50
2023-04-25T13:45:25.906Z,11.00
2023-04-25T13:47:53.887Z,14.10
2023-04-25T13:50:22.370Z,9.90
2023-04-25T13:52:50.315Z,122.40
2023-04-25T13:55:18.920Z,71.40
2023-04-25T13:57:46.801Z,70.20
2023-04-25T14:00:15.756Z,97.80
2023-04-25T14:02:43.656Z,17.40
2023-04-25T14:05:11.695Z,7.90
2023-04-25T14:07:39.870Z,10.40
2023-04-25T14:10:08.292Z,10.50
2023-04-25T14:12:36.210Z,9.70
2023-04-25T14:15:04.970Z,31.50
2023-04-25T14:17:32.962Z,11.50
2023-04-25T14:20:00.867Z,12.50
2023-04-25T14:22:28.913Z,12.20
2023-04-25T14:24:57.847Z,8.30
2023-04-25T14:27:29.111Z,11.30
2023-04-25T14:29:57.451Z,16.90
2023-04-25T14:32:43.076Z,29.20
2023-04-25T14:35:11.222Z,17.60
2023-04-25T14:37:39.151Z,18.40
2023-04-25T14:40:11.586Z,18.90
2023-04-25T14:42:40.977Z,13.60
2023-04-25T14:45:09.807Z,17.20
2023-04-25T14:47:38.267Z,22.80
2023-04-25T14:50:07.876Z,27.30
2023-04-25T14:52:35.874Z,32.40
2023-04-25T14:55:08.560Z,26.50
2023-04-25T14:57:36.522Z,18.40
2023-04-25T15:00:08.099Z,12.50
2023-04-25T15:02:37.889Z,20.80
2023-04-25T15:05:06.778Z,27.80
2023-04-25T15:07:35.181Z,16.00
2023-04-25T15:10:04.469Z,13.50
2023-04-25T15:12:32.869Z,13.00
2023-04-25T15:15:01.136Z,15.10
2023-04-25T15:17:32.061Z,24.00
2023-04-25T15:20:00.033Z,15.10
2023-04-25T15:22:28.076Z,22.70
2023-04-25T15:24:57.869Z,11.90
2023-04-25T15:27:28.258Z,8.20
2023-04-25T15:29:56.262Z,13.90
2023-04-25T15:32:24.432Z,13.60
2023-04-25T15:34:52.258Z,22.40
2023-04-25T15:37:20.636Z,19.40
2023-04-25T15:39:48.534Z,12.10
2023-04-25T15:42:16.552Z,27.60
2023-04-25T15:44:44.393Z,17.10
2023-04-25T15:47:12.395Z,37.70
2023-04-25T15:49:42.297Z,28.60
2023-04-25T15:52:11.714Z,24.70
2023-04-25T15:54:39.544Z,246.00
2023-04-25T15:57:10.535Z,55.20
2023-04-25T15:59:38.267Z,35.80
2023-04-25T16:02:06.288Z,45.20
2023-04-25T16:04:35.618Z,27.80
2023-04-25T16:07:03.754Z,68.90
2023-04-25T16:09:34.022Z,101.60
2023-04-25T16:12:04.261Z,92.70
2023-04-25T16:14:33.680Z,160.70
2023-04-25T16:17:01.541Z,112.20
2023-04-25T16:19:29.384Z,311.50
2023-04-25T16:21:57.564Z,547.00
2023-04-25T16:24:26.149Z,475.60
2023-04-25T16:26:55.959Z,344.80
2023-04-25T16:29:25.336Z,502.20
2023-04-25T16:31:53.645Z,459.90
2023-04-25T16:34:23.529Z,188.80
2023-04-25T16:36:51.509Z,148.40
2023-04-25T16:39:19.593Z,179.40
2023-04-25T16:41:48.707Z,186.20
2023-04-25T16:44:17.024Z,189.00
2023-04-25T16:46:45.098Z,255.00
2023-04-25T16:49:13.101Z,285.90
2023-04-25T16:51:41.414Z,100.70
2023-04-25T16:54:09.345Z,57.10
2023-04-25T16:56:37.444Z,74.60
2023-04-25T16:59:05.825Z,47.30
2023-04-25T17:01:33.903Z,109.60
2023-04-25T17:04:02.746Z,60.30
2023-04-25T17:06:31.028Z,62.00
2023-04-25T17:08:58.810Z,133.60
2023-04-25T17:11:27.604Z,73.70
2023-04-25T17:13:55.426Z,58.50
2023-04-25T17:16:24.178Z,85.80
2023-04-25T17:18:53.025Z,123.10
2023-04-25T17:21:23.556Z,74.00
2023-04-25T17:23:52.899Z,41.20
2023-04-25T17:26:21.293Z,32.30
2023-04-25T17:28:49.935Z,46.40
2023-04-25T17:31:18.376Z,21.70
2023-04-25T17:33:47.248Z,24.40
2023-04-25T17:36:15.381Z,21.60
2023-04-25T17:38:43.228Z,15.00
2023-04-25T17:41:13.350Z,11.70
2023-04-25T17:43:41.348Z,15.80
2023-04-25T17:46:10.046Z,33.30
2023-04-25T17:48:38.057Z,29.70
2023-04-25T17:51:07.651Z,50.20
2023-04-25T17:53:35.987Z,61.40
2023-04-25T17:56:06.923Z,22.80
2023-04-25T17:58:41.331Z,20.70
2023-04-25T18:01:09.108Z,15.00
2023-04-25T18:03:40.500Z,11.90
2023-04-25T18:06:08.420Z,13.10
2023-04-25T18:08:36.405Z,11.00
2023-04-25T18:11:05.258Z,11.60
2023-04-25T18:13:33.309Z,7.90
2023-04-25T18:16:01.319Z,8.00
2023-04-25T18:18:33.932Z,8.80
2023-04-25T18:21:04.225Z,9.90
2023-04-25T18:23:36.792Z,9.10
2023-04-25T18:26:05.156Z,7.50
2023-04-25T18:28:34.585Z,8.60
2023-04-25T18:31:02.565Z,9.40
2023-04-25T18:33:31.924Z,11.20
2023-04-25T18:36:00.149Z,8.80
2023-04-25T18:41:12.981Z,8.60
2023-04-25T18:43:49.014Z,8.70
2023-04-25T18:46:22.168Z,9.30
2023-04-25T18:48:54.091Z,9.20
2023-04-25T18:51:29.488Z,9.80
2023-04-25T18:53:58.599Z,10.90
2023-04-25T18:56:27.458Z,11.40
2023-04-25T18:58:56.097Z,9.80
2023-04-25T19:01:25.175Z,11.10
2023-04-25T19:03:57.173Z,14.70
2023-04-25T19:06:29.744Z,10.60
2023-04-25T19:08:57.854Z,10.80
2023-04-25T19:11:25.753Z,9.50
2023-04-25T19:13:57.015Z,10.40
2023-04-25T19:16:26.581Z,11.50
2023-04-25T19:18:56.843Z,12.60
2023-04-25T19:21:24.765Z,11.70
2023-04-25T19:23:54.687Z,10.90
2023-04-25T19:26:25.352Z,10.40
2023-04-25T19:29:11.421Z,10.70
2023-04-25T19:31:39.882Z,9.90
2023-04-25T19:34:09.593Z,12.10
2023-04-25T19:36:38.831Z,14.40
2023-04-25T19:39:07.415Z,10.80
2023-04-25T19:41:38.368Z,11.00
2023-04-25T19:44:08.474Z,10.20
2023-04-25T19:46:37.014Z,9.30
2023-04-25T19:49:07.887Z,8.60
2023-04-25T19:51:37.509Z,10.70
2023-04-25T19:54:06.184Z,10.40
2023-04-25T19:56:36.276Z,10.00
2023-04-25T19:59:04.329Z,12.00
2023-04-25T20:01:32.271Z,27.00
2023-04-25T20:04:00.259Z,25.00
2023-04-25T20:06:29.171Z,21.90
2023-04-25T20:08:57.235Z,15.70
2023-04-25T20:11:28.613Z,11.50
2023-04-25T20:13:56.853Z,9.70
2023-04-25T20:16:25.203Z,8.80
2023-04-25T20:18:53.621Z,8.60
2023-04-25T20:21:22.377Z,9.30
2023-04-25T20:23:50.815Z,8.10
2023-04-25T20:26:18.595Z,9.80
2023-04-25T20:28:46.605Z,7.80
2023-04-25T20:31:14.484Z,8.60
2023-04-25T20:33:43.857Z,8.30
2023-04-25T20:36:11.741Z,6.40
2023-04-25T20:38:39.489Z,11.90
2023-04-25T20:41:07.388Z,9.30
2023-04-25T20:43:38.308Z,7.60
2023-04-25T20:46:06.448Z,5.70
2023-04-25T20:48:35.686Z,7.10
2023-04-25T20:51:04.088Z,8.50
2023-04-25T20:53:31.973Z,6.60
2023-04-25T20:55:59.836Z,9.20
2023-04-25T20:58:28.710Z,7.60
2023-04-25T21:00:56.686Z,10.20
2023-04-25T21:03:26.227Z,8.10
2023-04-25T21:05:54.317Z,8.80
2023-04-25T21:08:22.073Z,8.80
2023-04-25T21:10:50.197Z,10.50
2023-04-25T21:13:18.165Z,7.20
2023-04-25T21:15:46.236Z,8.00
2023-04-25T21:18:14.104Z,8.50
2023-04-25T21:20:42.462Z,10.20
2023-04-25T21:23:10.370Z,8.60
2023-04-25T21:25:38.214Z,8.50
2023-04-25T21:28:06.675Z,9.70
2023-04-25T21:30:34.666Z,9.20
2023-04-25T21:33:02.987Z,10.00
2023-04-25T21:35:30.886Z,9.20
2023-04-25T21:37:58.707Z,9.50
2023-04-25T21:40:26.636Z,10.30
2023-04-25T21:42:54.387Z,12.10
2023-04-25T21:45:22.508Z,7.50
2023-04-25T21:47:50.883Z,10.40
2023-04-25T21:50:20.334Z,10.20
2023-04-25T21:52:51.126Z,9.80
2023-04-25T21:55:19.833Z,10.90
2023-04-25T21:57:47.804Z,12.10
2023-04-25T22:00:24.530Z,12.10
2023-04-25T22:02:53.229Z,8.80
2023-04-25T22:05:22.738Z,11.00
2023-04-25T22:07:51.294Z,9.80
2023-04-25T22:10:21.156Z,8.80
2023-04-25T22:12:52.138Z,11.80
2023-04-25T22:15:23.870Z,12.10
2023-04-25T22:17:52.877Z,11.90
2023-04-25T22:20:24.348Z,10.60
2023-04-25T22:22:53.002Z,8.50
2023-04-25T22:25:21.389Z,9.50
2023-04-25T22:27:49.605Z,9.80
2023-04-25T22:30:18.484Z,8.00
2023-04-25T22:32:46.642Z,11.60
2023-04-25T22:35:14.685Z,12.40
2023-04-25T22:37:42.568Z,9.60
2023-04-25T22:40:11.563Z,11.70
2023-04-25T22:42:43.661Z,11.30
2023-04-25T22:45:11.700Z,9.40
2023-04-25T22:47:39.816Z,11.70
2023-04-25T22:50:12.587Z,9.20
2023-04-25T22:52:40.645Z,11.40
2023-04-25T22:55:08.671Z,12.00
2023-04-25T22:57:39.737Z,9.80
2023-04-25T23:00:15.985Z,10.20
2023-04-25T23:02:46.003Z,11.40
2023-04-25T23:05:14.991Z,11.70
2023-04-25T23:07:44.791Z,9.90
2023-04-25T23:10:14.225Z,13.50
2023-04-25T23:12:42.327Z,11.20
2023-04-25T23:15:10.919Z,7.40
2023-04-25T23:17:39.327Z,8.70
2023-04-25T23:20:10.736Z,10.80
2023-04-25T23:22:39.009Z,9.20
2023-04-25T23:25:08.699Z,11.10
2023-04-25T23:27:37.498Z,9.60
2023-04-25T23:30:08.780Z,9.00
2023-04-25T23:32:37.498Z,8.10
2023-04-25T23:35:06.790Z,11.50
2023-04-25T23:37:38.334Z,9.40
2023-04-25T23:40:10.703Z,9.40
2023-04-25T23:42:39.906Z,10.30
2023-04-25T23:45:08.720Z,11.30
2023-04-25T23:47:36.790Z,8.40
2023-04-25T23:50:06.238Z,8.80
2023-04-25T23:52:34.042Z,7.90
2023-04-25T23:55:02.161Z,9.10
2023-04-25T23:57:30.089Z,6.50
2023-04-25T23:59:58.717Z,8.50
